createdAt,value
2018-07-19T00:00:09.860Z,18.30
2018-07-19T00:02:41.299Z,18.40
2018-07-19T00:05:11.337Z,18.40
2018-07-19T00:07:43.229Z,18.40
2018-07-19T00:10:14.432Z,18.40
2018-07-19T00:12:48.797Z,18.40
2018-07-19T00:15:19.274Z,18.30
2018-07-19T00:17:48.160Z,18.30
2018-07-19T00:20:18.295Z,18.30
2018-07-19T00:22:47.918Z,18.20
2018-07-19T00:25:18.326Z,18.20
2018-07-19T00:27:49.492Z,18.10
2018-07-19T00:30:20.042Z,18.10
2018-07-19T00:32:50.828Z,18.10
2018-07-19T00:35:20.383Z,18.00
2018-07-19T00:37:54.242Z,18.00
2018-07-19T00:40:25.782Z,17.90
2018-07-19T00:42:55.846Z,17.90
2018-07-19T00:45:25.896Z,17.90
2018-07-19T00:47:55.942Z,17.90
2018-07-19T00:50:27.047Z,18.00
2018-07-19T00:53:01.905Z,18.00
2018-07-19T00:55:32.887Z,18.10
2018-07-19T00:58:02.928Z,18.10
2018-07-19T01:00:31.856Z,18.10
2018-07-19T01:03:02.829Z,18.00
2018-07-19T01:05:34.196Z,17.90
2018-07-19T01:08:04.696Z,17.90
2018-07-19T01:10:35.521Z,17.90
2018-07-19T01:13:06.184Z,17.80
2018-07-19T01:15:35.811Z,17.80
2018-07-19T01:18:05.464Z,17.80
2018-07-19T01:20:35.350Z,17.70
2018-07-19T01:23:05.072Z,17.70
2018-07-19T01:25:35.649Z,17.70
2018-07-19T01:28:07.511Z,17.60
2018-07-19T01:30:38.716Z,17.60
2018-07-19T01:33:09.665Z,17.60
2018-07-19T01:35:42.048Z,17.60
2018-07-19T01:38:13.773Z,17.60
2018-07-19T01:40:44.770Z,17.60
2018-07-19T01:43:15.619Z,17.60
2018-07-19T01:45:46.624Z,17.60
2018-07-19T01:48:16.620Z,17.60
2018-07-19T01:50:47.356Z,17.60
2018-07-19T01:53:16.902Z,17.60
2018-07-19T01:55:48.003Z,17.60
2018-07-19T01:58:17.964Z,17.50
2018-07-19T02:00:48.665Z,17.50
2018-07-19T02:03:19.658Z,17.50
2018-07-19T02:05:49.984Z,17.50
2018-07-19T02:08:18.974Z,17.50
2018-07-19T02:10:49.530Z,17.50
2018-07-19T02:13:19.982Z,17.50
2018-07-19T02:15:50.410Z,17.40
2018-07-19T02:18:19.850Z,17.40
2018-07-19T02:20:49.826Z,17.30
2018-07-19T02:23:20.002Z,17.30
2018-07-19T02:25:48.571Z,17.30
2018-07-19T02:28:17.903Z,17.30
2018-07-19T02:30:48.756Z,17.30
2018-07-19T02:33:18.811Z,17.30
2018-07-19T02:35:49.737Z,17.30
2018-07-19T02:38:21.592Z,17.30
2018-07-19T02:40:52.037Z,17.30
2018-07-19T02:43:22.955Z,17.40
2018-07-19T02:45:54.823Z,17.40
2018-07-19T02:48:24.928Z,17.40
2018-07-19T02:50:54.781Z,17.40
2018-07-19T02:53:24.024Z,17.40
2018-07-19T02:55:54.333Z,17.40
2018-07-19T02:58:23.844Z,17.40
2018-07-19T03:00:53.981Z,17.40
2018-07-19T03:03:23.096Z,17.50
2018-07-19T03:05:52.912Z,17.50
2018-07-19T03:08:22.664Z,17.60
2018-07-19T03:10:53.558Z,17.70
2018-07-19T03:13:23.008Z,17.70
2018-07-19T03:15:52.824Z,17.70
2018-07-19T03:18:22.784Z,17.80
2018-07-19T03:20:53.441Z,17.90
2018-07-19T03:23:25.180Z,18.00
2018-07-19T03:25:54.791Z,18.10
2018-07-19T03:28:24.867Z,18.20
2018-07-19T03:30:56.626Z,18.20
2018-07-19T03:33:26.737Z,18.30
2018-07-19T03:35:56.855Z,18.40
2018-07-19T03:38:26.420Z,18.60
2018-07-19T03:40:55.745Z,18.70
2018-07-19T03:43:24.931Z,18.80
2018-07-19T03:45:55.471Z,19.00
2018-07-19T03:48:26.492Z,19.20
2018-07-19T03:50:57.522Z,19.30
2018-07-19T03:53:28.975Z,19.40
2018-07-19T03:55:59.755Z,19.50
2018-07-19T03:58:30.770Z,19.60
2018-07-19T04:01:01.558Z,19.70
2018-07-19T04:03:31.660Z,19.90
2018-07-19T04:06:01.871Z,20.00
2018-07-19T04:08:33.386Z,20.10
2018-07-19T04:11:05.563Z,20.30
2018-07-19T04:13:36.065Z,20.50
2018-07-19T04:16:07.470Z,20.60
2018-07-19T04:18:37.576Z,20.70
2018-07-19T04:21:09.209Z,20.80
2018-07-19T04:23:40.748Z,21.00
2018-07-19T04:26:12.623Z,21.10
2018-07-19T04:28:43.042Z,21.20
2018-07-19T04:31:12.598Z,21.40
2018-07-19T04:33:43.765Z,21.60
2018-07-19T04:36:13.803Z,21.70
2018-07-19T04:38:47.714Z,22.00
2018-07-19T04:41:18.035Z,22.20
2018-07-19T04:43:51.458Z,22.30
2018-07-19T04:46:21.919Z,22.50
2018-07-19T04:48:51.474Z,22.70
2018-07-19T04:51:21.114Z,22.80
2018-07-19T04:53:50.733Z,23.10
2018-07-19T04:56:25.780Z,23.20
2018-07-19T04:58:56.203Z,23.40
2018-07-19T05:01:27.762Z,23.60
2018-07-19T05:03:58.479Z,23.70
2018-07-19T05:06:29.470Z,23.80
2018-07-19T05:09:00.437Z,24.00
2018-07-19T05:11:31.580Z,24.10
2018-07-19T05:14:02.422Z,24.20
2018-07-19T05:16:34.533Z,24.30
2018-07-19T05:19:06.223Z,24.40
2018-07-19T05:21:37.169Z,24.50
2018-07-19T05:24:08.464Z,24.60
2018-07-19T05:26:40.387Z,24.60
2018-07-19T05:29:11.295Z,24.60
2018-07-19T05:31:42.730Z,24.70
2018-07-19T05:34:13.692Z,24.80
2018-07-19T05:36:44.658Z,24.80
2018-07-19T05:39:14.494Z,24.80
2018-07-19T05:41:44.483Z,24.80
2018-07-19T05:44:15.578Z,24.90
2018-07-19T05:46:46.597Z,24.90
2018-07-19T05:49:16.668Z,25.00
2018-07-19T05:51:49.660Z,25.00
2018-07-19T05:54:20.227Z,25.00
2018-07-19T05:56:52.287Z,25.00
2018-07-19T05:59:22.725Z,25.00
2018-07-19T06:01:52.169Z,25.00
2018-07-19T06:04:23.401Z,25.10
2018-07-19T06:06:58.243Z,25.10
2018-07-19T06:09:30.298Z,25.10
2018-07-19T06:12:02.334Z,25.10
2018-07-19T06:14:34.175Z,25.20
2018-07-19T06:17:04.213Z,25.30
2018-07-19T06:19:35.578Z,25.40
2018-07-19T06:22:06.419Z,25.50
2018-07-19T06:24:37.495Z,25.60
2018-07-19T06:27:07.608Z,25.60
2018-07-19T06:29:37.597Z,25.70
2018-07-19T06:32:07.021Z,25.70
2018-07-19T06:34:38.240Z,25.80
2018-07-19T06:37:08.543Z,25.80
2018-07-19T06:39:38.575Z,25.90
2018-07-19T06:42:09.560Z,25.90
2018-07-19T06:44:39.215Z,25.90
2018-07-19T06:47:09.418Z,25.90
2018-07-19T06:49:41.448Z,25.90
2018-07-19T06:52:11.182Z,26.00
2018-07-19T06:54:40.444Z,26.10
2018-07-19T06:57:10.462Z,26.10
2018-07-19T06:59:41.976Z,26.20
2018-07-19T07:02:12.858Z,26.30
2018-07-19T07:04:42.571Z,26.30
2018-07-19T07:07:12.025Z,26.40
2018-07-19T07:09:42.084Z,26.40
2018-07-19T07:12:14.358Z,26.40
2018-07-19T07:14:45.078Z,26.40
2018-07-19T07:17:17.133Z,26.50
2018-07-19T07:19:48.267Z,26.60
2018-07-19T07:22:19.246Z,26.70
2018-07-19T07:24:49.439Z,26.70
2018-07-19T07:27:19.952Z,26.80
2018-07-19T07:29:50.280Z,26.90
2018-07-19T07:32:21.241Z,27.10
2018-07-19T07:34:51.737Z,27.20
2018-07-19T07:37:22.480Z,27.30
2018-07-19T07:39:51.475Z,27.40
2018-07-19T07:42:22.035Z,27.50
2018-07-19T07:44:53.936Z,27.60
2018-07-19T07:47:24.206Z,27.60
2018-07-19T07:49:56.128Z,27.60
2018-07-19T07:52:28.098Z,27.70
2018-07-19T07:54:59.593Z,27.70
2018-07-19T07:57:30.092Z,27.70
2018-07-19T08:00:01.139Z,27.80
2018-07-19T08:02:31.978Z,27.70
2018-07-19T08:05:03.250Z,27.60
2018-07-19T08:07:35.209Z,27.60
2018-07-19T08:10:06.313Z,27.50
2018-07-19T08:12:37.989Z,27.60
2018-07-19T08:15:08.377Z,27.50
2018-07-19T08:17:37.495Z,27.50
2018-07-19T08:20:06.818Z,27.70
2018-07-19T08:22:36.081Z,27.80
2018-07-19T08:25:06.634Z,27.80
2018-07-19T08:27:37.017Z,27.70
2018-07-19T08:30:07.319Z,27.70
2018-07-19T08:32:37.361Z,27.70
2018-07-19T08:35:07.181Z,27.70
2018-07-19T08:37:38.617Z,27.70
2018-07-19T08:40:08.201Z,27.70
2018-07-19T08:42:38.175Z,27.80
2018-07-19T08:45:12.248Z,27.80
2018-07-19T08:47:41.510Z,28.00
2018-07-19T08:50:11.943Z,28.10
2018-07-19T08:52:45.587Z,28.10
2018-07-19T08:55:15.467Z,28.10
2018-07-19T08:57:46.425Z,28.20
2018-07-19T09:00:16.837Z,28.30
2018-07-19T09:02:47.849Z,28.40
2018-07-19T09:05:19.150Z,28.50
2018-07-19T09:07:51.217Z,28.50
2018-07-19T09:10:21.267Z,28.50
2018-07-19T09:12:50.913Z,28.40
2018-07-19T09:15:20.386Z,28.30
2018-07-19T09:17:56.024Z,28.40
2018-07-19T09:20:26.993Z,28.60
2018-07-19T09:22:56.335Z,28.80
2018-07-19T09:25:34.942Z,28.90
2018-07-19T09:28:08.545Z,28.90
2018-07-19T09:30:39.263Z,28.90
2018-07-19T09:33:08.436Z,29.10
2018-07-19T09:35:38.237Z,29.40
2018-07-19T09:38:11.007Z,29.60
2018-07-19T09:40:42.036Z,29.70
2018-07-19T09:43:12.934Z,29.80
2018-07-19T09:45:44.094Z,29.70
2018-07-19T09:48:14.076Z,29.50
2018-07-19T09:50:45.797Z,29.50
2018-07-19T09:53:22.371Z,29.30
2018-07-19T09:55:54.853Z,29.30
2018-07-19T09:58:26.864Z,29.30
2018-07-19T10:01:06.322Z,29.40
2018-07-19T10:03:38.463Z,29.30
2018-07-19T10:06:09.093Z,29.20
2018-07-19T10:08:41.063Z,29.10
2018-07-19T10:11:11.661Z,29.00
2018-07-19T10:13:42.269Z,29.20
2018-07-19T10:16:13.661Z,29.20
2018-07-19T10:18:44.740Z,29.30
2018-07-19T10:21:16.659Z,29.30
2018-07-19T10:23:46.263Z,29.20
2018-07-19T10:26:18.623Z,29.20
2018-07-19T10:28:51.054Z,29.20
2018-07-19T10:31:22.984Z,29.20
2018-07-19T10:33:54.158Z,29.30
2018-07-19T10:36:24.221Z,29.50
2018-07-19T10:38:55.823Z,29.50
2018-07-19T10:41:26.248Z,29.40
2018-07-19T10:43:57.828Z,29.30
2018-07-19T10:46:28.714Z,29.20
2018-07-19T10:49:00.066Z,29.20
2018-07-19T10:51:29.894Z,29.40
2018-07-19T10:54:00.004Z,29.50
2018-07-19T10:56:30.034Z,29.40
2018-07-19T10:58:59.927Z,29.60
2018-07-19T11:01:30.694Z,29.60
2018-07-19T11:04:01.713Z,29.70
2018-07-19T11:06:32.880Z,29.80
2018-07-19T11:09:03.702Z,29.90
2018-07-19T11:11:33.977Z,30.00
2018-07-19T11:14:04.668Z,30.00
2018-07-19T11:16:36.573Z,30.00
2018-07-19T11:19:07.076Z,30.10
2018-07-19T11:21:38.051Z,30.30
2018-07-19T11:24:08.225Z,30.30
2018-07-19T11:26:42.137Z,30.40
2018-07-19T11:29:14.480Z,30.40
2018-07-19T11:31:49.075Z,30.30
2018-07-19T11:34:20.135Z,30.20
2018-07-19T11:36:51.967Z,30.20
2018-07-19T11:39:23.719Z,30.20
2018-07-19T11:41:55.852Z,30.10
2018-07-19T11:44:27.715Z,30.10
2018-07-19T11:46:59.856Z,30.00
2018-07-19T11:49:31.067Z,30.00
2018-07-19T11:52:02.732Z,30.00
2018-07-19T11:54:33.116Z,30.00
2018-07-19T11:57:03.345Z,30.00
2018-07-19T11:59:35.796Z,29.90
2018-07-19T12:02:07.868Z,29.90
2018-07-19T12:04:38.969Z,29.90
2018-07-19T12:07:10.020Z,29.80
2018-07-19T12:09:41.417Z,29.80
2018-07-19T12:12:13.518Z,29.80
2018-07-19T12:14:45.214Z,29.90
2018-07-19T12:17:16.227Z,30.00
2018-07-19T12:19:47.853Z,30.10
2018-07-19T12:22:17.734Z,30.00
2018-07-19T12:24:47.847Z,30.00
2018-07-19T12:27:19.547Z,29.90
2018-07-19T12:29:50.620Z,29.90
2018-07-19T12:32:20.865Z,29.90
2018-07-19T12:34:51.157Z,30.00
2018-07-19T12:37:21.419Z,30.20
2018-07-19T12:39:52.954Z,30.20
2018-07-19T12:42:24.580Z,30.30
2018-07-19T12:44:56.607Z,30.50
2018-07-19T12:47:28.378Z,30.70
2018-07-19T12:49:59.772Z,30.80
2018-07-19T12:52:31.851Z,30.90
2018-07-19T12:55:06.203Z,31.00
2018-07-19T12:57:36.024Z,30.90
2018-07-19T13:00:06.912Z,31.00
2018-07-19T13:02:38.516Z,31.00
2018-07-19T13:05:09.569Z,30.80
2018-07-19T13:07:41.687Z,30.70
2018-07-19T13:10:12.950Z,30.70
2018-07-19T13:12:44.579Z,30.40
2018-07-19T13:15:15.915Z,30.50
2018-07-19T13:17:48.446Z,30.50
2018-07-19T13:20:20.400Z,30.50
2018-07-19T13:22:51.819Z,30.60
2018-07-19T13:25:23.025Z,30.60
2018-07-19T13:27:56.337Z,30.70
2018-07-19T13:30:27.216Z,30.60
2018-07-19T13:32:58.291Z,30.40
2018-07-19T13:35:30.306Z,30.20
2018-07-19T13:38:02.447Z,30.10
2018-07-19T13:40:33.998Z,30.00
2018-07-19T13:43:04.825Z,29.90
2018-07-19T13:45:35.252Z,29.90
2018-07-19T13:48:05.431Z,29.80
2018-07-19T13:50:35.747Z,29.70
2018-07-19T13:53:30.752Z,29.60
2018-07-19T13:56:00.668Z,29.50
2018-07-19T13:58:29.843Z,29.40
2018-07-19T14:00:59.772Z,29.30
2018-07-19T14:03:31.399Z,29.30
2018-07-19T14:06:02.580Z,29.20
2018-07-19T14:08:33.083Z,29.20
2018-07-19T14:11:03.002Z,29.10
2018-07-19T14:13:34.727Z,29.10
2018-07-19T14:16:07.699Z,29.00
2018-07-19T14:18:38.673Z,28.90
2018-07-19T14:21:09.645Z,28.90
2018-07-19T14:23:39.632Z,28.80
2018-07-19T14:26:10.513Z,28.80
2018-07-19T14:28:46.425Z,28.80
2018-07-19T14:31:18.218Z,28.80
2018-07-19T14:33:49.241Z,28.90
2018-07-19T14:36:20.708Z,28.90
2018-07-19T14:38:51.468Z,29.00
2018-07-19T14:41:22.592Z,29.00
2018-07-19T14:43:52.454Z,29.10
2018-07-19T14:46:26.655Z,29.10
2018-07-19T14:49:03.741Z,29.20
2018-07-19T14:51:34.868Z,29.20
2018-07-19T14:54:05.657Z,29.20
2018-07-19T14:56:36.306Z,29.10
2018-07-19T14:59:07.621Z,29.00
2018-07-19T15:01:39.483Z,29.00
2018-07-19T15:04:11.707Z,29.00
2018-07-19T15:06:41.764Z,28.90
2018-07-19T15:09:11.923Z,28.80
2018-07-19T15:11:44.914Z,28.80
2018-07-19T15:14:15.747Z,28.80
2018-07-19T15:16:46.317Z,28.70
2018-07-19T15:19:19.656Z,28.80
2018-07-19T15:21:50.922Z,28.80
2018-07-19T15:24:21.700Z,28.80
2018-07-19T15:26:56.058Z,28.80
2018-07-19T15:29:29.135Z,28.70
2018-07-19T15:32:00.446Z,28.80
2018-07-19T15:34:32.049Z,28.80
2018-07-19T15:37:01.509Z,28.80
2018-07-19T15:39:31.481Z,28.90
2018-07-19T15:42:01.389Z,29.00
2018-07-19T15:44:33.127Z,28.90
2018-07-19T15:47:02.831Z,29.00
2018-07-19T15:49:33.296Z,29.00
2018-07-19T15:52:04.117Z,29.10
2018-07-19T15:54:33.719Z,29.20
2018-07-19T15:57:04.623Z,29.10
2018-07-19T15:59:35.575Z,29.20
2018-07-19T16:02:11.523Z,29.50
2018-07-19T16:04:43.051Z,29.70
2018-07-19T16:07:13.419Z,29.90
2018-07-19T16:09:43.560Z,30.00
2018-07-19T16:12:13.729Z,30.20
2018-07-19T16:14:50.309Z,30.60
2018-07-19T16:17:28.731Z,31.30
2018-07-19T16:20:05.453Z,31.90
2018-07-19T16:22:36.571Z,32.50
2018-07-19T16:25:07.546Z,33.10
2018-07-19T16:27:39.777Z,33.60
2018-07-19T16:30:11.504Z,34.10
2018-07-19T16:32:41.391Z,34.60
2018-07-19T16:35:14.488Z,34.80
2018-07-19T16:37:51.703Z,34.60
2018-07-19T16:40:24.194Z,34.50
2018-07-19T16:42:56.029Z,34.10
2018-07-19T16:45:27.204Z,33.80
2018-07-19T16:47:58.461Z,33.50
2018-07-19T16:50:30.256Z,33.10
2018-07-19T16:53:01.837Z,33.00
2018-07-19T16:55:31.660Z,32.80
2018-07-19T16:58:03.067Z,32.90
2018-07-19T17:00:34.743Z,33.10
2018-07-19T17:03:04.477Z,33.10
2018-07-19T17:05:34.519Z,33.30
2018-07-19T17:08:05.748Z,33.00
2018-07-19T17:10:35.631Z,32.80
2018-07-19T17:13:05.819Z,32.60
2018-07-19T17:15:36.164Z,32.60
2018-07-19T17:18:08.162Z,32.70
2018-07-19T17:20:39.568Z,32.90
2018-07-19T17:23:10.652Z,32.80
2018-07-19T17:25:41.044Z,32.70
2018-07-19T17:28:11.964Z,32.50
2018-07-19T17:30:42.270Z,32.40
2018-07-19T17:33:11.328Z,32.00
2018-07-19T17:35:42.115Z,31.60
2018-07-19T17:38:14.658Z,31.40
2018-07-19T17:40:45.659Z,31.00
2018-07-19T17:43:16.341Z,30.80
2018-07-19T17:45:45.489Z,30.50
2018-07-19T17:48:15.246Z,30.40
2018-07-19T17:50:46.202Z,30.20
2018-07-19T17:53:16.664Z,29.90
2018-07-19T17:55:48.253Z,29.60
2018-07-19T17:58:29.050Z,29.20
2018-07-19T18:01:01.036Z,28.80
2018-07-19T18:03:30.550Z,28.40
2018-07-19T18:06:00.933Z,28.00
2018-07-19T18:08:31.282Z,27.70
2018-07-19T18:11:01.397Z,27.40
2018-07-19T18:13:31.642Z,27.20
2018-07-19T18:16:02.260Z,27.10
2018-07-19T18:18:35.303Z,26.90
2018-07-19T18:21:05.124Z,26.80
2018-07-19T18:23:35.139Z,26.60
2018-07-19T18:26:05.033Z,26.50
2018-07-19T18:28:37.025Z,26.40
2018-07-19T18:31:08.533Z,26.20
2018-07-19T18:33:38.705Z,26.10
2018-07-19T18:36:08.854Z,25.90
2018-07-19T18:38:40.332Z,25.80
2018-07-19T18:41:10.280Z,25.60
2018-07-19T18:43:44.206Z,25.50
2018-07-19T18:46:15.867Z,25.40
2018-07-19T18:48:49.784Z,25.30
2018-07-19T18:51:19.736Z,25.20
2018-07-19T18:53:51.760Z,25.10
2018-07-19T18:56:22.298Z,25.00
2018-07-19T18:58:53.614Z,24.90
2018-07-19T19:01:24.547Z,24.80
2018-07-19T19:03:54.021Z,24.70
2018-07-19T19:06:24.706Z,24.60
2018-07-19T19:08:55.022Z,24.50
2018-07-19T19:14:37.446Z,24.30
2018-07-19T19:17:07.643Z,24.20
2018-07-19T19:19:37.817Z,24.10
2018-07-19T19:22:08.461Z,24.00
2018-07-19T19:24:39.799Z,23.90
2018-07-19T19:27:10.097Z,23.80
2018-07-19T19:29:41.610Z,23.70
2018-07-19T19:32:12.176Z,23.60
2018-07-19T19:34:42.254Z,23.60
2018-07-19T19:37:11.740Z,23.50
2018-07-19T19:39:43.519Z,23.30
2018-07-19T19:42:15.353Z,23.20
2018-07-19T19:44:46.489Z,23.10
2018-07-19T19:47:17.495Z,23.10
2018-07-19T19:49:48.142Z,23.00
2018-07-19T19:52:20.865Z,22.90
2018-07-19T19:54:51.501Z,22.80
2018-07-19T19:57:22.359Z,22.70
2018-07-19T19:59:53.335Z,22.60
2018-07-19T20:02:24.289Z,22.50
2018-07-19T20:04:56.396Z,22.30
2018-07-19T20:07:27.901Z,22.20
2018-07-19T20:09:57.560Z,22.10
2018-07-19T20:12:27.456Z,22.10
2018-07-19T20:14:57.113Z,22.00
2018-07-19T20:17:27.308Z,21.90
2018-07-19T20:19:56.609Z,21.80
2018-07-19T20:22:27.449Z,21.80
2018-07-19T20:24:57.839Z,21.70
2018-07-19T20:27:29.055Z,21.60
2018-07-19T20:30:00.566Z,21.50
2018-07-19T20:32:31.353Z,21.50
2018-07-19T20:35:02.873Z,21.40
2018-07-19T20:37:32.582Z,21.30
2018-07-19T20:40:02.213Z,21.20
2018-07-19T20:42:32.849Z,21.20
2018-07-19T20:45:03.197Z,21.20
2018-07-19T20:47:34.281Z,21.10
2018-07-19T20:50:04.663Z,21.00
2018-07-19T20:52:50.632Z,20.90
2018-07-19T20:55:22.937Z,20.90
2018-07-19T20:57:53.288Z,20.80
2018-07-19T21:00:24.431Z,20.80
2018-07-19T21:02:54.967Z,20.80
2018-07-19T21:05:26.744Z,20.70
2018-07-19T21:07:56.359Z,20.70
2018-07-19T21:10:28.879Z,20.60
2018-07-19T21:13:00.290Z,20.60
2018-07-19T21:15:30.810Z,20.60
2018-07-19T21:18:00.308Z,20.50
2018-07-19T21:20:32.399Z,20.50
2018-07-19T21:23:02.292Z,20.40
2018-07-19T21:25:32.202Z,20.40
2018-07-19T21:28:01.284Z,20.40
2018-07-19T21:30:31.274Z,20.30
2018-07-19T21:33:01.107Z,20.20
2018-07-19T21:35:30.461Z,20.20
2018-07-19T21:38:01.160Z,20.20
2018-07-19T21:40:32.766Z,20.20
2018-07-19T21:43:03.018Z,20.10
2018-07-19T21:45:32.431Z,20.10
2018-07-19T21:48:02.269Z,20.10
2018-07-19T21:50:32.666Z,20.10
2018-07-19T21:53:05.019Z,20.00
2018-07-19T21:55:35.911Z,20.00
2018-07-19T21:58:07.202Z,20.00
2018-07-19T22:00:41.116Z,20.00
2018-07-19T22:03:11.139Z,19.90
2018-07-19T22:05:41.271Z,19.90
2018-07-19T22:08:11.820Z,19.90
2018-07-19T22:10:41.890Z,19.90
2018-07-19T22:13:13.209Z,19.80
2018-07-19T22:15:45.288Z,19.70
2018-07-19T22:18:15.101Z,19.70
2018-07-19T22:20:44.180Z,19.60
2018-07-19T22:23:13.335Z,19.60
2018-07-19T22:25:44.200Z,19.50
2018-07-19T22:28:16.046Z,19.50
2018-07-19T22:30:47.814Z,19.40
2018-07-19T22:33:19.874Z,19.40
2018-07-19T22:35:50.892Z,19.40
2018-07-19T22:38:22.263Z,19.30
2018-07-19T22:40:53.744Z,19.20
2018-07-19T22:43:24.213Z,19.20
2018-07-19T22:45:55.300Z,19.10
2018-07-19T22:48:24.884Z,19.10
2018-07-19T22:50:55.213Z,19.00
2018-07-19T22:53:27.494Z,19.00
2018-07-19T22:55:58.830Z,18.90
2018-07-19T22:58:28.262Z,18.90
2018-07-19T23:00:58.593Z,18.80
2018-07-19T23:03:28.172Z,18.80
2018-07-19T23:05:57.940Z,18.80
2018-07-19T23:08:27.291Z,18.80
2018-07-19T23:10:57.689Z,18.70
2018-07-19T23:13:29.272Z,18.70
2018-07-19T23:15:58.962Z,18.70
2018-07-19T23:18:28.451Z,18.70
2018-07-19T23:20:59.374Z,18.60
2018-07-19T23:23:28.781Z,18.60
2018-07-19T23:25:59.003Z,18.60
2018-07-19T23:28:30.143Z,18.60
2018-07-19T23:31:00.206Z,18.60
2018-07-19T23:33:31.866Z,18.50
2018-07-19T23:36:10.599Z,18.50
2018-07-19T23:38:46.098Z,18.50
2018-07-19T23:41:20.730Z,18.50
2018-07-19T23:43:54.773Z,18.40
2018-07-19T23:46:35.228Z,18.40
2018-07-19T23:49:07.048Z,18.30
2018-07-19T23:51:39.194Z,18.30
2018-07-19T23:54:10.706Z,18.30
2018-07-19T23:56:40.116Z,18.30
2018-07-19T23:59:09.881Z,18.30
